createdAt,value
2018-09-22T00:00:50.125Z,36.80
2018-09-22T00:03:19.970Z,36.60
2018-09-22T00:05:49.273Z,35.60
2018-09-22T00:08:17.833Z,36.00
2018-09-22T00:10:46.453Z,37.50
2018-09-22T00:13:15.054Z,36.00
2018-09-22T00:15:43.626Z,37.20
2018-09-22T00:18:12.226Z,36.60
2018-09-22T00:20:40.989Z,36.10
2018-09-22T00:24:33.782Z,37.20
2018-09-22T00:27:02.453Z,36.90
2018-09-22T00:29:31.229Z,36.90
2018-09-22T00:31:59.950Z,37.20
2018-09-22T00:34:28.561Z,38.10
2018-09-22T00:36:57.189Z,38.60
2018-09-22T00:39:26.692Z,39.20
2018-09-22T00:41:55.311Z,40.00
2018-09-22T00:44:23.998Z,41.10
2018-09-22T00:46:52.777Z,41.70
2018-09-22T00:49:21.341Z,42.30
2018-09-22T00:51:49.908Z,42.40
2018-09-22T00:54:18.597Z,44.80
2018-09-22T00:56:47.215Z,44.30
2018-09-22T00:59:15.830Z,44.90
2018-09-22T01:01:44.398Z,45.70
2018-09-22T01:04:13.001Z,47.00
2018-09-22T01:06:41.671Z,46.90
2018-09-22T01:09:10.256Z,46.20
2018-09-22T01:11:39.118Z,46.70
2018-09-22T01:14:08.273Z,49.40
2018-09-22T01:16:37.209Z,49.50
2018-09-22T01:19:06.076Z,50.60
2018-09-22T01:21:34.660Z,52.10
2018-09-22T01:24:03.221Z,51.80
2018-09-22T01:26:31.908Z,58.90
2018-09-22T01:29:00.429Z,60.20
2018-09-22T01:31:29.053Z,59.80
2018-09-22T01:33:57.670Z,60.10
2018-09-22T01:36:26.213Z,60.20
2018-09-22T01:38:55.068Z,60.20
2018-09-22T01:41:23.684Z,60.60
2018-09-22T01:43:52.778Z,60.90
2018-09-22T01:46:21.632Z,61.30
2018-09-22T01:48:50.212Z,61.60
2018-09-22T01:51:18.764Z,62.00
2018-09-22T01:53:47.292Z,61.70
2018-09-22T01:56:15.912Z,61.00
2018-09-22T01:58:44.516Z,62.50
2018-09-22T02:01:13.090Z,63.00
2018-09-22T02:03:41.700Z,62.70
2018-09-22T02:06:10.323Z,63.60
2018-09-22T02:08:38.856Z,62.00
2018-09-22T02:11:07.662Z,61.80
2018-09-22T02:13:36.237Z,61.40
2018-09-22T02:16:05.308Z,62.40
2018-09-22T02:18:33.973Z,62.10
2018-09-22T02:21:02.578Z,61.70
2018-09-22T02:23:31.508Z,62.30
2018-09-22T02:26:00.094Z,61.70
2018-09-22T02:28:28.792Z,61.80
2018-09-22T02:30:57.425Z,62.50
2018-09-22T02:33:26.160Z,62.70
2018-09-22T02:35:54.872Z,62.00
2018-09-22T02:38:23.477Z,61.20
2018-09-22T02:40:52.009Z,60.60
2018-09-22T02:43:20.545Z,59.50
2018-09-22T02:45:49.110Z,58.00
2018-09-22T02:48:17.901Z,54.60
2018-09-22T02:50:46.529Z,52.80
2018-09-22T02:53:15.113Z,57.70
2018-09-22T02:55:43.872Z,54.20
2018-09-22T02:58:12.389Z,46.90
2018-09-22T03:00:40.989Z,46.20
2018-09-22T03:03:09.541Z,45.80
2018-09-22T03:05:38.133Z,47.20
2018-09-22T03:08:06.775Z,44.80
2018-09-22T03:10:35.463Z,45.90
2018-09-22T03:13:04.111Z,42.80
2018-09-22T03:15:32.687Z,44.90
2018-09-22T03:18:01.343Z,43.80
2018-09-22T03:20:30.009Z,43.50
2018-09-22T03:22:58.545Z,45.60
2018-09-22T03:25:27.122Z,44.40
2018-09-22T03:27:55.768Z,45.40
2018-09-22T03:30:24.406Z,46.80
2018-09-22T03:32:53.181Z,44.10
2018-09-22T03:35:21.868Z,44.70
2018-09-22T03:37:50.413Z,48.40
2018-09-22T03:40:19.027Z,49.10
2018-09-22T03:42:48.360Z,49.40
2018-09-22T03:45:16.885Z,49.10
2018-09-22T03:47:45.777Z,51.30
2018-09-22T03:50:14.313Z,52.90
2018-09-22T03:52:42.932Z,53.60
2018-09-22T03:55:11.746Z,54.20
2018-09-22T03:57:40.445Z,53.70
2018-09-22T04:00:09.720Z,54.30
2018-09-22T04:02:38.378Z,53.50
2018-09-22T04:05:07.332Z,54.50
2018-09-22T04:07:35.987Z,56.00
2018-09-22T04:10:04.988Z,56.60
2018-09-22T04:12:33.661Z,59.50
2018-09-22T04:15:02.305Z,57.70
2018-09-22T04:17:31.116Z,56.60
2018-09-22T04:20:00.342Z,57.90
2018-09-22T04:22:29.852Z,55.90
2018-09-22T04:24:58.735Z,56.50
2018-09-22T04:27:27.450Z,57.80
2018-09-22T04:29:56.046Z,57.40
2018-09-22T04:32:24.624Z,56.20
2018-09-22T04:34:53.277Z,56.90
2018-09-22T04:37:21.930Z,56.40
2018-09-22T04:39:50.509Z,55.70
2018-09-22T04:42:19.067Z,53.20
2018-09-22T04:44:47.641Z,56.80
2018-09-22T04:47:16.240Z,57.80
2018-09-22T04:49:44.979Z,60.30
2018-09-22T04:52:13.792Z,60.00
2018-09-22T04:54:42.500Z,60.00
2018-09-22T04:57:11.162Z,61.50
2018-09-22T04:59:40.193Z,61.60
2018-09-22T05:02:08.756Z,62.20
2018-09-22T05:04:37.813Z,61.70
2018-09-22T05:07:06.866Z,62.30
2018-09-22T05:09:35.491Z,63.10
2018-09-22T05:12:04.241Z,62.50
2018-09-22T05:14:32.906Z,63.00
2018-09-22T05:17:01.650Z,63.70
2018-09-22T05:19:30.301Z,64.10
2018-09-22T05:21:58.953Z,64.20
2018-09-22T05:24:27.867Z,64.20
2018-09-22T05:26:56.662Z,64.30
2018-09-22T05:29:25.296Z,65.60
2018-09-22T05:31:53.849Z,65.60
2018-09-22T05:34:22.554Z,65.90
2018-09-22T05:36:51.378Z,66.60
2018-09-22T05:39:20.012Z,66.10
2018-09-22T05:41:48.646Z,65.30
2018-09-22T05:44:17.252Z,65.60
2018-09-22T05:46:46.000Z,64.90
2018-09-22T05:49:14.749Z,65.50
2018-09-22T05:51:43.371Z,65.70
2018-09-22T05:54:11.942Z,65.70
2018-09-22T05:56:40.638Z,64.20
2018-09-22T05:59:09.431Z,64.60
2018-09-22T06:01:38.352Z,64.40
2018-09-22T06:04:07.838Z,65.30
2018-09-22T06:06:36.485Z,65.50
2018-09-22T06:09:07.489Z,64.60
2018-09-22T06:11:36.773Z,64.80
2018-09-22T06:14:06.042Z,63.10
2018-09-22T06:16:34.754Z,63.70
2018-09-22T06:19:04.000Z,64.30
2018-09-22T06:21:32.730Z,61.00
2018-09-22T06:24:01.316Z,60.70
2018-09-22T06:26:29.981Z,61.10
2018-09-22T06:28:58.599Z,62.00
2018-09-22T06:31:27.230Z,62.00
2018-09-22T06:33:55.801Z,60.90
2018-09-22T06:36:24.360Z,61.30
2018-09-22T06:38:52.958Z,60.30
2018-09-22T06:41:21.809Z,47.70
2018-09-22T06:43:50.466Z,51.60
2018-09-22T06:46:19.131Z,51.50
2018-09-22T06:48:47.857Z,50.20
2018-09-22T06:51:16.442Z,45.00
2018-09-22T06:53:45.056Z,46.10
2018-09-22T06:56:13.741Z,46.60
2018-09-22T06:58:42.416Z,46.60
2018-09-22T07:01:11.253Z,42.20
2018-09-22T07:03:39.864Z,42.00
2018-09-22T07:06:08.985Z,38.90
2018-09-22T07:08:38.100Z,40.60
2018-09-22T07:11:07.033Z,35.20
2018-09-22T07:13:35.632Z,34.60
2018-09-22T07:16:05.060Z,42.50
2018-09-22T07:18:33.600Z,39.10
2018-09-22T07:21:07.153Z,36.40
2018-09-22T07:23:36.628Z,34.80
2018-09-22T07:26:05.732Z,33.40
2018-09-22T07:28:34.389Z,34.20
2018-09-22T07:31:03.730Z,33.50
2018-09-22T07:33:33.092Z,35.90
2018-09-22T07:36:01.779Z,34.50
2018-09-22T07:38:30.289Z,33.20
2018-09-22T07:40:58.874Z,31.30
2018-09-22T07:43:27.509Z,29.50
2018-09-22T07:45:56.261Z,31.10
2018-09-22T07:48:24.925Z,29.60
2018-09-22T07:50:53.742Z,28.80
2018-09-22T07:53:22.422Z,29.00
2018-09-22T07:55:51.108Z,28.80
2018-09-22T07:58:20.101Z,28.80
2018-09-22T08:00:49.182Z,28.90
2018-09-22T08:03:17.745Z,29.90
2018-09-22T08:05:46.348Z,28.50
2018-09-22T08:08:15.181Z,29.00
2018-09-22T08:10:43.918Z,29.00
2018-09-22T08:13:12.505Z,28.90
2018-09-22T08:15:41.204Z,28.00
2018-09-22T08:18:09.839Z,28.40
2018-09-22T08:20:38.550Z,29.80
2018-09-22T08:23:07.193Z,27.80
2018-09-22T08:25:35.894Z,28.20
2018-09-22T08:28:04.632Z,27.60
2018-09-22T08:30:33.455Z,26.70
2018-09-22T08:33:02.742Z,27.10
2018-09-22T08:35:31.609Z,27.20
2018-09-22T08:38:00.313Z,26.70
2018-09-22T08:40:28.880Z,27.60
2018-09-22T08:42:58.097Z,26.20
2018-09-22T08:45:26.869Z,26.70
2018-09-22T08:47:55.903Z,26.20
2018-09-22T08:50:24.649Z,26.50
2018-09-22T08:52:53.350Z,28.10
2018-09-22T08:55:22.029Z,27.10
2018-09-22T08:57:51.981Z,27.30
2018-09-22T09:00:20.678Z,27.00
2018-09-22T09:02:49.378Z,26.70
2018-09-22T09:05:17.961Z,27.40
2018-09-22T09:07:46.661Z,27.30
2018-09-22T09:10:15.285Z,27.40
2018-09-22T09:12:43.977Z,27.90
2018-09-22T09:15:12.829Z,27.60
2018-09-22T09:17:41.424Z,28.10
2018-09-22T09:20:10.650Z,27.30
2018-09-22T09:22:39.448Z,26.60
2018-09-22T09:25:08.221Z,26.70
2018-09-22T09:27:37.105Z,25.80
2018-09-22T09:30:05.781Z,26.30
2018-09-22T09:32:34.505Z,26.70
2018-09-22T09:37:31.944Z,26.30
2018-09-22T09:40:01.291Z,25.70
2018-09-22T09:42:30.364Z,25.60
2018-09-22T09:44:59.025Z,25.80
2018-09-22T09:47:27.749Z,25.70
2018-09-22T09:49:56.462Z,25.70
2018-09-22T09:52:25.030Z,25.50
2018-09-22T09:54:53.751Z,26.80
2018-09-22T09:57:22.342Z,26.90
2018-09-22T09:59:50.989Z,26.60
2018-09-22T10:02:19.576Z,25.70
2018-09-22T10:04:48.182Z,26.70
2018-09-22T10:07:16.869Z,26.60
2018-09-22T10:09:45.449Z,26.60
2018-09-22T10:12:14.030Z,26.80
2018-09-22T10:14:43.320Z,26.00
2018-09-22T10:17:12.264Z,26.10
2018-09-22T10:19:41.067Z,26.50
2018-09-22T10:22:09.988Z,26.90
2018-09-22T10:24:38.801Z,27.00
2018-09-22T10:27:07.411Z,26.20
2018-09-22T10:29:36.041Z,25.60
2018-09-22T10:32:04.601Z,25.40
2018-09-22T10:34:33.234Z,25.90
2018-09-22T10:37:01.905Z,25.60
2018-09-22T10:39:30.489Z,25.70
2018-09-22T10:41:59.054Z,25.30
2018-09-22T10:44:27.938Z,26.00
2018-09-22T10:46:56.602Z,26.80
2018-09-22T10:49:25.277Z,26.20
2018-09-22T10:51:54.009Z,27.00
2018-09-22T10:54:22.701Z,27.50
2018-09-22T10:56:52.031Z,26.10
2018-09-22T10:59:20.671Z,26.10
2018-09-22T11:01:49.342Z,26.60
2018-09-22T11:04:18.680Z,26.50
2018-09-22T11:06:47.289Z,26.00
2018-09-22T11:09:16.052Z,26.40
2018-09-22T11:11:44.859Z,27.10
2018-09-22T11:14:13.554Z,27.10
2018-09-22T11:16:42.234Z,27.20
2018-09-22T11:19:10.965Z,26.60
2018-09-22T11:21:39.520Z,26.60
2018-09-22T11:24:08.110Z,25.70
2018-09-22T11:26:36.845Z,25.10
2018-09-22T11:29:05.620Z,25.40
2018-09-22T11:31:34.201Z,25.30
2018-09-22T11:34:02.757Z,26.00
2018-09-22T11:36:31.577Z,25.70
2018-09-22T11:39:00.306Z,26.40
2018-09-22T11:41:28.981Z,25.80
2018-09-22T11:43:57.649Z,25.00
2018-09-22T11:46:26.285Z,24.50
2018-09-22T11:48:54.922Z,27.00
2018-09-22T11:51:23.975Z,24.20
2018-09-22T11:53:52.645Z,26.70
2018-09-22T11:56:21.425Z,27.00
2018-09-22T11:58:50.772Z,26.60
2018-09-22T12:01:19.370Z,26.40
2018-09-22T12:03:47.893Z,26.70
2018-09-22T12:06:16.646Z,26.40
2018-09-22T12:08:45.342Z,26.10
2018-09-22T12:11:14.011Z,24.70
2018-09-22T12:13:42.692Z,25.10
2018-09-22T12:16:12.310Z,26.50
2018-09-22T12:18:40.981Z,25.80
2018-09-22T12:21:09.741Z,25.70
2018-09-22T12:23:38.316Z,26.10
2018-09-22T12:26:07.109Z,26.30
2018-09-22T12:28:35.963Z,26.50
2018-09-22T12:31:04.613Z,26.90
2018-09-22T12:33:33.191Z,26.90
2018-09-22T12:36:02.010Z,27.00
2018-09-22T12:38:30.562Z,26.90
2018-09-22T12:40:59.302Z,26.10
2018-09-22T12:43:27.981Z,26.10
2018-09-22T12:45:56.687Z,25.60
2018-09-22T12:48:25.219Z,25.30
2018-09-22T12:50:53.857Z,25.40
2018-09-22T12:53:22.508Z,25.30
2018-09-22T12:55:51.165Z,24.40
2018-09-22T12:58:19.881Z,24.10
2018-09-22T13:00:48.452Z,25.40
2018-09-22T13:03:17.120Z,25.20
2018-09-22T13:05:45.870Z,25.60
2018-09-22T13:08:14.450Z,25.50
2018-09-22T13:10:44.109Z,25.90
2018-09-22T13:13:12.673Z,25.90
2018-09-22T13:15:41.405Z,25.50
2018-09-22T13:18:10.125Z,26.30
2018-09-22T13:20:38.716Z,26.50
2018-09-22T13:23:07.371Z,25.70
2018-09-22T13:25:36.064Z,24.80
2018-09-22T13:28:04.628Z,25.20
2018-09-22T13:30:33.227Z,25.90
2018-09-22T13:33:01.960Z,25.60
2018-09-22T13:35:30.525Z,26.60
2018-09-22T13:37:59.190Z,26.20
2018-09-22T13:40:27.765Z,25.90
2018-09-22T13:42:56.291Z,25.70
2018-09-22T13:45:24.930Z,26.40
2018-09-22T13:47:53.577Z,26.40
2018-09-22T13:50:22.318Z,26.70
2018-09-22T13:52:51.080Z,25.40
2018-09-22T13:55:19.651Z,25.60
2018-09-22T13:57:48.361Z,24.50
2018-09-22T14:00:17.013Z,25.10
2018-09-22T14:02:45.606Z,24.90
2018-09-22T14:05:14.233Z,25.10
2018-09-22T14:07:43.636Z,26.10
2018-09-22T14:10:12.289Z,25.50
2018-09-22T14:12:40.906Z,25.20
2018-09-22T14:15:09.498Z,24.70
2018-09-22T14:17:38.152Z,25.00
2018-09-22T14:20:06.760Z,25.20
2018-09-22T14:22:35.469Z,24.90
2018-09-22T14:25:04.073Z,24.50
2018-09-22T14:27:32.786Z,25.10
2018-09-22T14:30:01.366Z,25.70
2018-09-22T14:32:30.682Z,25.10
2018-09-22T14:34:59.414Z,24.40
2018-09-22T14:37:30.890Z,24.10
2018-09-22T14:40:00.246Z,24.40
2018-09-22T14:42:29.014Z,24.20
2018-09-22T14:44:57.603Z,24.00
2018-09-22T14:47:26.361Z,24.20
2018-09-22T14:49:54.989Z,24.00
2018-09-22T14:52:23.668Z,23.90
2018-09-22T14:54:52.302Z,24.00
2018-09-22T14:57:21.209Z,24.00
2018-09-22T14:59:50.561Z,23.60
2018-09-22T15:02:19.168Z,23.40
2018-09-22T15:04:47.761Z,23.90
2018-09-22T15:07:16.955Z,23.10
2018-09-22T15:09:45.713Z,23.50
2018-09-22T15:12:14.498Z,23.30
2018-09-22T15:14:43.304Z,23.10
2018-09-22T15:17:12.044Z,23.20
2018-09-22T15:19:40.692Z,23.10
2018-09-22T15:22:16.548Z,22.90
2018-09-22T15:24:45.365Z,22.50
2018-09-22T15:27:13.922Z,22.30
2018-09-22T15:29:42.766Z,22.80
2018-09-22T15:32:11.553Z,22.30
2018-09-22T15:34:40.391Z,23.00
2018-09-22T15:37:12.351Z,22.90
2018-09-22T15:39:41.061Z,22.40
2018-09-22T15:42:09.769Z,23.10
2018-09-22T15:44:38.718Z,22.60
2018-09-22T15:47:08.037Z,22.60
2018-09-22T15:49:36.606Z,22.50
2018-09-22T15:52:05.402Z,22.60
2018-09-22T15:54:33.962Z,22.40
2018-09-22T15:57:02.636Z,22.20
2018-09-22T15:59:31.244Z,22.70
2018-09-22T16:01:59.940Z,22.70
2018-09-22T16:04:28.566Z,22.10
2018-09-22T16:06:58.004Z,22.10
2018-09-22T16:09:27.240Z,22.60
2018-09-22T16:11:56.010Z,22.10
2018-09-22T16:14:25.278Z,22.30
2018-09-22T16:16:53.989Z,22.40
2018-09-22T16:19:22.725Z,22.90
2018-09-22T16:21:51.513Z,21.90
2018-09-22T16:24:20.121Z,22.30
2018-09-22T16:26:48.955Z,22.30
2018-09-22T16:29:17.562Z,21.90
2018-09-22T16:31:46.510Z,22.50
2018-09-22T16:34:15.426Z,22.50
2018-09-22T16:36:44.161Z,22.30
2018-09-22T16:39:13.544Z,22.40
2018-09-22T16:41:42.212Z,22.00
2018-09-22T16:44:11.565Z,21.60
2018-09-22T16:46:40.382Z,21.80
2018-09-22T16:49:09.064Z,21.70
2018-09-22T16:51:37.646Z,21.60
2018-09-22T16:54:06.285Z,21.90
2018-09-22T16:56:34.972Z,22.10
2018-09-22T16:59:03.820Z,21.70
2018-09-22T17:01:32.444Z,21.60
2018-09-22T17:04:01.024Z,21.80
2018-09-22T17:06:29.706Z,21.80
2018-09-22T17:08:58.264Z,22.00
2018-09-22T17:11:27.669Z,22.40
2018-09-22T17:13:56.313Z,22.40
2018-09-22T17:16:24.932Z,23.10
2018-09-22T17:18:53.479Z,23.10
2018-09-22T17:21:22.344Z,22.90
2018-09-22T17:23:51.060Z,23.30
2018-09-22T17:26:19.701Z,22.50
2018-09-22T17:28:48.354Z,23.10
2018-09-22T17:31:16.981Z,22.70
2018-09-22T17:33:46.189Z,22.70
2018-09-22T17:36:14.773Z,23.00
2018-09-22T17:38:43.381Z,22.50
2018-09-22T17:41:12.036Z,23.60
2018-09-22T17:43:40.772Z,24.20
2018-09-22T17:46:09.421Z,24.50
2018-09-22T17:48:38.153Z,25.00
2018-09-22T17:51:07.089Z,24.70
2018-09-22T17:53:35.688Z,24.20
2018-09-22T17:56:04.413Z,23.90
2018-09-22T17:58:33.945Z,24.50
2018-09-22T18:01:02.650Z,24.20
2018-09-22T18:03:31.279Z,24.60
2018-09-22T18:06:00.034Z,24.40
2018-09-22T18:08:28.748Z,24.40
2018-09-22T18:10:57.491Z,24.10
2018-09-22T18:13:26.258Z,24.40
2018-09-22T18:15:54.937Z,24.50
2018-09-22T18:18:23.691Z,24.40
2018-09-22T18:20:52.413Z,24.50
2018-09-22T18:23:21.168Z,24.40
2018-09-22T18:25:49.878Z,24.20
2018-09-22T18:28:18.605Z,23.50
2018-09-22T18:30:47.652Z,23.20
2018-09-22T18:33:17.447Z,22.80
2018-09-22T18:35:46.072Z,23.30
2018-09-22T18:38:14.975Z,23.20
2018-09-22T18:40:43.630Z,23.10
2018-09-22T18:43:12.200Z,22.80
2018-09-22T18:45:40.842Z,23.20
2018-09-22T18:48:09.549Z,23.40
2018-09-22T18:50:38.273Z,23.40
2018-09-22T18:53:07.060Z,23.70
2018-09-22T18:55:35.707Z,23.10
2018-09-22T18:58:04.458Z,23.60
2018-09-22T19:00:33.121Z,23.40
2018-09-22T19:03:02.939Z,24.00
2018-09-22T19:05:31.576Z,23.60
2018-09-22T19:08:00.171Z,23.10
2018-09-22T19:10:28.828Z,23.60
2018-09-22T19:12:58.376Z,23.60
2018-09-22T19:15:57.693Z,23.70
2018-09-22T19:18:35.447Z,24.00
2018-09-22T19:22:10.280Z,23.30
2018-09-22T19:25:09.643Z,23.50
2018-09-22T19:28:00.162Z,23.60
2018-09-22T19:30:45.205Z,23.40
2018-09-22T19:33:26.248Z,23.40
2018-09-22T19:36:02.367Z,24.00
2018-09-22T19:40:40.314Z,23.10
2018-09-22T19:43:19.652Z,23.90
2018-09-22T19:45:50.513Z,23.80
2018-09-22T19:48:34.136Z,24.40
2018-09-22T19:51:06.409Z,25.20
2018-09-22T19:53:35.213Z,25.80
2018-09-22T19:56:03.993Z,26.30
2018-09-22T19:58:33.329Z,26.10
2018-09-22T20:01:02.326Z,26.60
2018-09-22T20:03:31.059Z,27.20
2018-09-22T20:05:59.667Z,26.40
2018-09-22T20:08:28.401Z,27.40
2018-09-22T20:10:57.097Z,27.20
2018-09-22T20:13:25.696Z,27.50
2018-09-22T20:15:54.543Z,26.90
2018-09-22T20:18:24.153Z,27.90
2018-09-22T20:20:52.719Z,29.10
2018-09-22T20:23:21.448Z,28.20
2018-09-22T20:25:50.151Z,27.60
2018-09-22T20:28:18.758Z,29.00
2018-09-22T20:30:48.393Z,29.60
2018-09-22T20:33:17.061Z,29.30
2018-09-22T20:35:45.728Z,29.50
2018-09-22T20:38:14.360Z,29.50
2018-09-22T20:40:43.171Z,28.60
2018-09-22T20:43:12.643Z,29.50
2018-09-22T20:45:41.274Z,29.90
2018-09-22T20:48:10.046Z,30.00
2018-09-22T20:50:39.545Z,31.50
2018-09-22T20:53:08.223Z,31.20
2018-09-22T20:55:36.831Z,31.20
2018-09-22T20:58:05.654Z,29.80
2018-09-22T21:00:34.510Z,29.50
2018-09-22T21:03:03.152Z,31.00
2018-09-22T21:05:31.862Z,31.10
2018-09-22T21:08:00.489Z,31.80
2018-09-22T21:10:29.157Z,31.80
2018-09-22T21:12:57.959Z,30.90
2018-09-22T21:15:26.733Z,29.10
2018-09-22T21:17:55.490Z,30.10
2018-09-22T21:20:24.109Z,30.30
2018-09-22T21:22:52.728Z,32.90
2018-09-22T21:25:21.453Z,35.40
2018-09-22T21:27:50.041Z,36.50
2018-09-22T21:30:18.737Z,35.90
2018-09-22T21:32:47.672Z,36.10
2018-09-22T21:35:16.931Z,37.00
2018-09-22T21:37:45.511Z,40.30
2018-09-22T21:40:14.173Z,41.20
2018-09-22T21:42:42.901Z,42.80
2018-09-22T21:45:11.478Z,47.10
2018-09-22T21:47:40.050Z,48.50
2018-09-22T21:50:08.743Z,41.60
2018-09-22T21:52:37.366Z,38.10
2018-09-22T21:55:06.021Z,36.30
2018-09-22T21:57:34.732Z,37.30
2018-09-22T22:00:03.775Z,42.50
2018-09-22T22:02:32.639Z,47.20
2018-09-22T22:05:01.398Z,50.40
2018-09-22T22:07:30.099Z,47.80
2018-09-22T22:09:59.421Z,47.50
2018-09-22T22:12:28.872Z,51.40
2018-09-22T22:14:57.595Z,54.20
2018-09-22T22:17:26.294Z,54.40
2018-09-22T22:19:54.973Z,58.90
2018-09-22T22:22:23.639Z,57.60
2018-09-22T22:24:52.288Z,59.20
2018-09-22T22:27:20.890Z,58.80
2018-09-22T22:29:49.591Z,60.20
2018-09-22T22:32:18.274Z,60.90
2018-09-22T22:34:46.921Z,56.70
2018-09-22T22:37:15.599Z,60.60
2018-09-22T22:39:44.626Z,61.30
2018-09-22T22:42:13.343Z,57.30
2018-09-22T22:44:41.916Z,61.90
2018-09-22T22:47:10.486Z,61.80
2018-09-22T22:49:39.171Z,56.60
2018-09-22T22:52:07.894Z,60.00
2018-09-22T22:54:36.929Z,61.20
2018-09-22T22:57:05.877Z,62.40
2018-09-22T22:59:35.091Z,61.60
2018-09-22T23:02:03.699Z,60.50
2018-09-22T23:04:32.277Z,60.80
2018-09-22T23:07:00.907Z,61.40
2018-09-22T23:09:29.497Z,61.40
2018-09-22T23:11:58.101Z,61.60
2018-09-22T23:14:26.696Z,61.40
2018-09-22T23:16:55.289Z,60.60
2018-09-22T23:19:24.054Z,60.70
2018-09-22T23:21:52.721Z,62.00
2018-09-22T23:24:21.343Z,63.40
2018-09-22T23:26:49.992Z,63.60
2018-09-22T23:29:18.804Z,64.40
2018-09-22T23:31:47.422Z,63.70
2018-09-22T23:34:16.273Z,64.60
2018-09-22T23:36:44.929Z,64.30
2018-09-22T23:39:13.517Z,64.00
2018-09-22T23:41:42.541Z,62.80
2018-09-22T23:44:11.245Z,64.50
2018-09-22T23:46:40.245Z,65.90
2018-09-22T23:49:09.308Z,66.00
2018-09-22T23:51:37.975Z,65.80
2018-09-22T23:54:06.901Z,65.20
2018-09-22T23:56:35.470Z,66.70
